createdAt,value
2018-08-31T00:02:58.509Z,96953.78
2018-08-31T00:07:48.041Z,96951.30
2018-08-31T00:13:24.721Z,96957.78
2018-08-31T00:16:49.415Z,96962.14
2018-08-31T00:20:15.245Z,96962.15
2018-08-31T00:23:57.153Z,96957.12
2018-08-31T00:27:38.779Z,96950.91
2018-08-31T00:31:25.445Z,96936.84
2018-08-31T00:35:20.789Z,96930.98
2018-08-31T00:39:16.769Z,96927.41
2018-08-31T00:45:15.905Z,96900.38
2018-08-31T00:48:40.579Z,96901.80
2018-08-31T00:52:05.246Z,96907.14
2018-08-31T00:55:30.095Z,96933.11
2018-08-31T00:58:54.733Z,96926.42
2018-08-31T01:02:19.410Z,96914.21
2018-08-31T01:05:44.117Z,96909.25
2018-08-31T01:09:08.797Z,96902.00
2018-08-31T01:12:33.418Z,96906.91
2018-08-31T01:15:58.245Z,96924.36
2018-08-31T01:19:22.885Z,96922.44
2018-08-31T01:22:47.565Z,96917.77
2018-08-31T01:26:12.304Z,96924.55
2018-08-31T01:29:37.000Z,96918.02
2018-08-31T01:33:01.735Z,96918.06
2018-08-31T01:36:26.574Z,96909.46
2018-08-31T01:39:51.227Z,96909.52
2018-08-31T01:43:15.891Z,96913.11
2018-08-31T01:46:40.542Z,96923.50
2018-08-31T01:50:05.232Z,96913.90
2018-08-31T01:53:29.881Z,96910.60
2018-08-31T01:56:54.766Z,96911.84
2018-08-31T02:00:19.468Z,96909.02
2018-08-31T02:03:44.159Z,96914.74
2018-08-31T02:07:08.839Z,96916.47
2018-08-31T02:10:33.445Z,96920.67
2018-08-31T02:13:58.090Z,96924.97
2018-08-31T02:17:22.769Z,96921.86
2018-08-31T02:20:47.439Z,96910.69
2018-08-31T02:24:12.238Z,96910.16
2018-08-31T02:27:36.922Z,96910.78
2018-08-31T02:31:01.617Z,96914.42
2018-08-31T02:34:26.424Z,96909.06
2018-08-31T02:37:51.100Z,96906.32
2018-08-31T02:41:15.764Z,96908.16
2018-08-31T02:44:40.629Z,96915.23
2018-08-31T02:48:05.336Z,96912.47
2018-08-31T02:51:30.011Z,96901.46
2018-08-31T02:54:54.602Z,96902.48
2018-08-31T02:58:19.234Z,96887.52
2018-08-31T03:01:43.900Z,96883.65
2018-08-31T03:05:08.568Z,96883.37
2018-08-31T03:08:33.311Z,96881.01
2018-08-31T03:11:57.980Z,96886.85
2018-08-31T03:16:47.094Z,96869.83
2018-08-31T03:20:11.762Z,96856.48
2018-08-31T03:23:36.418Z,96863.21
2018-08-31T03:27:01.077Z,96877.98
2018-08-31T03:30:25.844Z,96874.92
2018-08-31T03:33:50.560Z,96854.17
2018-08-31T03:37:15.210Z,96843.48
2018-08-31T03:40:39.845Z,96860.13
2018-08-31T03:44:04.605Z,96891.02
2018-08-31T03:47:29.268Z,96888.02
2018-08-31T03:50:53.905Z,96859.22
2018-08-31T03:54:18.607Z,96835.05
2018-08-31T03:57:43.287Z,96829.28
2018-08-31T04:01:08.053Z,96811.19
2018-08-31T04:04:32.675Z,96787.67
2018-08-31T04:07:57.329Z,96803.39
2018-08-31T04:11:22.203Z,96854.45
2018-08-31T04:14:46.915Z,96867.38
2018-08-31T04:18:11.551Z,96856.34
2018-08-31T04:21:36.308Z,96839.23
2018-08-31T04:25:00.983Z,96827.41
2018-08-31T04:28:25.724Z,96799.03
2018-08-31T04:31:50.467Z,96773.43
2018-08-31T04:35:15.185Z,96760.37
2018-08-31T04:38:39.852Z,96762.70
2018-08-31T04:42:04.521Z,96790.36
2018-08-31T04:45:29.224Z,96809.14
2018-08-31T04:48:54.116Z,96817.41
2018-08-31T04:52:18.822Z,96823.80
2018-08-31T04:55:43.490Z,96824.42
2018-08-31T04:59:08.148Z,96816.56
2018-08-31T05:02:32.779Z,96811.95
2018-08-31T05:05:57.477Z,96817.71
2018-08-31T05:09:22.179Z,96819.62
2018-08-31T05:12:46.913Z,96826.22
2018-08-31T05:16:11.663Z,96823.81
2018-08-31T05:19:36.232Z,96810.75
2018-08-31T05:23:01.012Z,96803.33
2018-08-31T05:26:26.125Z,96803.90
2018-08-31T05:29:50.835Z,96810.06
2018-08-31T05:33:15.561Z,96816.37
2018-08-31T05:36:40.214Z,96821.63
2018-08-31T05:40:05.020Z,96835.23
2018-08-31T05:43:29.692Z,96843.13
2018-08-31T05:46:54.380Z,96841.91
2018-08-31T05:50:19.053Z,96848.45
2018-08-31T05:53:43.675Z,96852.53
2018-08-31T05:57:08.374Z,96851.49
2018-08-31T06:00:33.048Z,96839.52
2018-08-31T06:03:57.663Z,96842.34
2018-08-31T06:07:23.058Z,96838.44
2018-08-31T06:10:47.749Z,96832.08
2018-08-31T06:14:12.416Z,96824.61
2018-08-31T06:17:37.079Z,96826.99
2018-08-31T06:21:01.807Z,96827.52
2018-08-31T06:24:26.481Z,96828.05
2018-08-31T06:27:51.185Z,96825.73
2018-08-31T06:31:15.848Z,96829.37
2018-08-31T06:34:40.516Z,96827.13
2018-08-31T06:38:05.269Z,96821.01
2018-08-31T06:41:30.013Z,96821.84
2018-08-31T06:44:54.691Z,96818.23
2018-08-31T06:48:20.622Z,96818.23
2018-08-31T06:53:09.798Z,96827.33
2018-08-31T06:56:34.590Z,96836.41
2018-08-31T06:59:59.248Z,96825.52
2018-08-31T07:03:23.862Z,96819.34
2018-08-31T07:06:48.643Z,96815.48
2018-08-31T07:10:14.129Z,96827.14
2018-08-31T07:13:38.745Z,96826.12
2018-08-31T07:17:04.125Z,96816.41
2018-08-31T07:20:28.872Z,96822.99
2018-08-31T07:23:53.780Z,96835.55
2018-08-31T07:27:18.441Z,96841.16
2018-08-31T07:30:43.120Z,96848.48
2018-08-31T07:34:07.832Z,96851.98
2018-08-31T07:37:32.580Z,96851.86
2018-08-31T07:40:57.394Z,96849.05
2018-08-31T07:44:22.260Z,96840.42
2018-08-31T07:47:47.014Z,96838.84
2018-08-31T07:51:11.646Z,96819.48
2018-08-31T07:54:36.341Z,96814.63
2018-08-31T07:58:01.646Z,96822.02
2018-08-31T08:01:26.315Z,96834.03
2018-08-31T08:04:51.010Z,96832.97
2018-08-31T08:08:15.695Z,96834.89
2018-08-31T08:11:40.376Z,96836.47
2018-08-31T08:15:05.307Z,96847.82
2018-08-31T08:18:30.025Z,96847.24
2018-08-31T08:21:54.828Z,96840.66
2018-08-31T08:25:19.489Z,96843.84
2018-08-31T08:28:44.293Z,96851.79
2018-08-31T08:32:09.059Z,96847.44
2018-08-31T08:35:33.859Z,96836.48
2018-08-31T08:38:58.523Z,96834.96
2018-08-31T08:42:23.257Z,96836.09
2018-08-31T08:45:47.989Z,96832.86
2018-08-31T08:49:12.656Z,96838.28
2018-08-31T08:52:37.288Z,96845.80
2018-08-31T08:56:01.920Z,96858.80
2018-08-31T08:59:26.587Z,96860.48
2018-08-31T09:02:51.329Z,96856.38
2018-08-31T09:06:15.959Z,96852.79
2018-08-31T09:09:40.585Z,96843.83
2018-08-31T09:13:05.308Z,96852.02
2018-08-31T09:16:30.039Z,96856.18
2018-08-31T09:19:54.695Z,96858.92
2018-08-31T09:23:19.572Z,96847.72
2018-08-31T09:26:44.438Z,96860.34
2018-08-31T09:30:13.220Z,96869.62
2018-08-31T09:33:37.967Z,96866.23
2018-08-31T09:37:03.007Z,96863.86
2018-08-31T09:40:27.754Z,96874.51
2018-08-31T09:43:52.693Z,96871.56
2018-08-31T09:47:17.345Z,96874.16
2018-08-31T09:50:42.042Z,96872.92
2018-08-31T09:54:06.834Z,96867.13
2018-08-31T09:57:31.806Z,96869.94
2018-08-31T10:01:01.770Z,96874.63
2018-08-31T10:04:26.747Z,96870.16
2018-08-31T10:07:51.449Z,96869.95
2018-08-31T10:11:16.252Z,96869.83
2018-08-31T10:14:40.978Z,96864.49
2018-08-31T10:18:05.719Z,96861.88
2018-08-31T10:21:30.513Z,96875.34
2018-08-31T10:24:55.252Z,96881.43
2018-08-31T10:28:20.018Z,96876.65
2018-08-31T10:31:44.806Z,96877.29
2018-08-31T10:35:09.735Z,96880.91
2018-08-31T10:38:34.898Z,96884.42
2018-08-31T10:41:59.825Z,96883.11
2018-08-31T10:45:25.590Z,96872.12
2018-08-31T10:48:50.435Z,96882.48
2018-08-31T10:52:15.690Z,96895.98
2018-08-31T10:55:41.592Z,96894.15
2018-08-31T10:59:06.881Z,96892.34
2018-08-31T11:02:31.706Z,96889.02
2018-08-31T11:05:56.790Z,96881.19
2018-08-31T11:09:22.636Z,96877.58
2018-08-31T11:12:47.534Z,96877.01
2018-08-31T11:16:14.008Z,96887.30
2018-08-31T11:19:46.342Z,96886.93
2018-08-31T11:23:11.121Z,96877.84
2018-08-31T11:26:35.958Z,96873.78
2018-08-31T11:30:02.459Z,96873.53
2018-08-31T11:33:27.770Z,96869.74
2018-08-31T11:36:54.265Z,96875.23
2018-08-31T11:40:19.886Z,96872.56
2018-08-31T13:54:49.883Z,96917.45
2018-08-31T13:58:14.717Z,96930.64
2018-08-31T14:01:39.734Z,96927.72
2018-08-31T14:05:04.565Z,96929.52
2018-08-31T14:08:29.487Z,96922.52
2018-08-31T14:11:54.665Z,96926.41
2018-08-31T14:15:22.271Z,96927.30
2018-08-31T14:18:47.588Z,96924.71
2018-08-31T14:22:12.919Z,96923.83
2018-08-31T14:25:40.513Z,96932.02
2018-08-31T14:29:07.465Z,96945.08
2018-08-31T14:32:32.862Z,96938.53
2018-08-31T14:35:58.556Z,96943.98
2018-08-31T14:39:23.785Z,96944.39
2018-08-31T16:26:39.319Z,97000.88
2018-08-31T16:30:04.365Z,97006.48
2018-08-31T18:44:34.151Z,97070.12
2018-08-31T18:48:02.299Z,97071.12
2018-08-31T21:28:31.761Z,97109.05
2018-08-31T21:31:56.646Z,97108.38
2018-08-31T21:35:21.347Z,97111.47
2018-08-31T21:38:46.196Z,97120.59
2018-08-31T21:42:11.089Z,97107.59
2018-08-31T21:45:35.695Z,97106.09
2018-08-31T21:49:00.366Z,97116.36
2018-08-31T21:52:25.167Z,97115.98
2018-08-31T21:55:49.822Z,97109.30
2018-08-31T21:59:14.582Z,97099.88
2018-08-31T22:02:39.272Z,97099.66
2018-08-31T22:06:04.028Z,97101.64
2018-08-31T22:09:28.813Z,97101.47
2018-08-31T22:12:53.728Z,97098.83
2018-08-31T22:16:18.504Z,97099.99
2018-08-31T22:19:43.171Z,97106.34
2018-08-31T22:23:08.006Z,97095.04
2018-08-31T22:26:32.755Z,97103.13
2018-08-31T22:29:57.509Z,97088.13
2018-08-31T22:33:22.227Z,97100.72
2018-08-31T22:36:46.979Z,97100.66
2018-08-31T22:40:11.719Z,97097.89
2018-08-31T22:43:41.750Z,97102.94
2018-08-31T22:47:06.991Z,97108.67
2018-08-31T22:50:31.688Z,97096.00
2018-08-31T22:53:56.375Z,97097.19
2018-08-31T22:57:21.086Z,97098.59
2018-08-31T23:00:45.761Z,97109.80
2018-08-31T23:04:10.446Z,97106.59
2018-08-31T23:07:40.530Z,97103.66
2018-08-31T23:11:07.117Z,97100.74
2018-08-31T23:14:31.890Z,97088.17
2018-08-31T23:17:56.611Z,97086.59
2018-08-31T23:21:21.280Z,97077.72
2018-08-31T23:24:45.947Z,97073.50
2018-08-31T23:28:10.617Z,97073.87
2018-08-31T23:31:35.305Z,97073.37
2018-08-31T23:34:59.957Z,97074.22
2018-08-31T23:38:24.634Z,97080.60
2018-08-31T23:41:49.319Z,97078.58
2018-08-31T23:45:14.031Z,97072.72
2018-08-31T23:48:38.715Z,97070.28
2018-08-31T23:52:03.397Z,97080.60
2018-08-31T23:55:28.111Z,97067.05
2018-08-31T23:58:52.743Z,97056.45
